createdAt,value
2023-05-19T00:02:26.210Z,100639.78
2023-05-19T00:07:31.375Z,100646.91
2023-05-19T00:12:33.322Z,100638.47
2023-05-19T00:17:35.154Z,100640.63
2023-05-19T00:22:37.109Z,100633.09
2023-05-19T00:27:38.801Z,100628.78
2023-05-19T00:32:40.751Z,100618.47
2023-05-19T00:37:42.473Z,100618.31
2023-05-19T00:42:44.141Z,100618.72
2023-05-19T00:47:45.947Z,100623.25
2023-05-19T00:52:47.690Z,100622.50
2023-05-19T00:57:49.919Z,100615.59
2023-05-19T01:02:51.828Z,100617.56
2023-05-19T01:07:55.610Z,100617.59
2023-05-19T01:12:57.432Z,100619.97
2023-05-19T01:18:08.286Z,100623.94
2023-05-19T01:23:21.558Z,100617.63
2023-05-19T01:28:49.147Z,100617.63
2023-05-19T01:33:53.263Z,100612.97
2023-05-19T01:38:58.552Z,100627.66
2023-05-19T01:44:00.769Z,100624.84
2023-05-19T01:49:03.122Z,100622.97
2023-05-19T01:54:04.833Z,100624.97
2023-05-19T01:59:23.949Z,100613.06
2023-05-19T02:04:51.182Z,100615.38
2023-05-19T02:10:30.974Z,100612.53
2023-05-19T02:15:42.319Z,100608.84
2023-05-19T02:20:44.152Z,100616.06
2023-05-19T02:25:45.883Z,100613.38
2023-05-19T02:30:47.583Z,100604.47
2023-05-19T02:35:49.303Z,100611.69
2023-05-19T02:40:52.402Z,100608.00
2023-05-19T02:45:54.266Z,100606.59
2023-05-19T02:50:55.988Z,100600.06
2023-05-19T02:55:57.671Z,100605.03
2023-05-19T03:00:59.328Z,100594.44
2023-05-19T03:06:01.963Z,100591.38
2023-05-19T03:11:03.862Z,100588.03
2023-05-19T03:16:08.113Z,100588.41
2023-05-19T03:21:10.201Z,100595.84
2023-05-19T03:26:11.886Z,100595.59
2023-05-19T03:31:13.644Z,100588.59
2023-05-19T03:36:16.318Z,100592.06
2023-05-19T03:41:18.071Z,100607.09
2023-05-19T03:46:19.980Z,100603.53
2023-05-19T03:51:21.677Z,100603.19
2023-05-19T03:56:27.785Z,100612.88
2023-05-19T04:01:29.603Z,100606.03
2023-05-19T04:06:33.968Z,100603.06
2023-05-19T04:11:36.655Z,100615.19
2023-05-19T04:16:38.518Z,100620.03
2023-05-19T04:21:40.192Z,100609.84
2023-05-19T04:26:45.951Z,100605.78
2023-05-19T04:31:49.114Z,100606.03
2023-05-19T04:36:53.249Z,100599.38
2023-05-19T04:41:56.729Z,100593.16
2023-05-19T04:47:00.234Z,100597.34
2023-05-19T04:52:02.079Z,100604.78
2023-05-19T04:57:05.843Z,100604.34
2023-05-19T05:02:11.225Z,100611.09
2023-05-19T05:07:12.989Z,100617.56
2023-05-19T05:12:15.589Z,100621.97
2023-05-19T05:17:17.734Z,100613.47
2023-05-19T05:22:19.890Z,100611.06
2023-05-19T05:27:21.662Z,100604.38
2023-05-19T05:32:23.635Z,100609.88
2023-05-19T05:37:25.628Z,100621.69
2023-05-19T05:42:29.699Z,100612.47
2023-05-19T05:47:32.579Z,100617.81
2023-05-19T05:52:36.641Z,100619.44
2023-05-19T05:57:41.939Z,100621.81
2023-05-19T06:02:47.369Z,100616.81
2023-05-19T06:07:50.096Z,100626.63
2023-05-19T06:12:56.492Z,100610.53
2023-05-19T06:18:00.236Z,100620.56
2023-05-19T06:23:02.932Z,100618.84
2023-05-19T06:28:04.996Z,100607.19
2023-05-19T06:33:07.322Z,100601.56
2023-05-19T06:38:09.224Z,100601.81
2023-05-19T06:43:11.461Z,100599.44
2023-05-19T06:48:35.157Z,100592.88
2023-05-19T06:53:38.212Z,100617.97
2023-05-19T06:58:43.757Z,100606.00
2023-05-19T07:03:46.923Z,100612.78
2023-05-19T07:08:50.113Z,100599.75
2023-05-19T07:13:52.819Z,100589.84
2023-05-19T07:19:00.522Z,100591.53
2023-05-19T07:24:02.278Z,100589.25
2023-05-19T07:29:04.310Z,100586.16
2023-05-19T07:34:06.080Z,100580.91
2023-05-19T07:39:07.828Z,100581.19
2023-05-19T07:44:10.449Z,100581.63
2023-05-19T07:49:12.132Z,100560.59
2023-05-19T07:54:13.779Z,100567.69
2023-05-19T07:59:16.086Z,100571.34
2023-05-19T08:04:17.933Z,100559.75
2023-05-19T08:09:20.217Z,100551.28
2023-05-19T08:14:22.930Z,100566.25
2023-05-19T08:19:24.755Z,100557.03
2023-05-19T08:24:26.669Z,100562.31
2023-05-19T08:29:28.334Z,100559.28
2023-05-19T08:34:29.987Z,100542.81
2023-05-19T08:39:34.226Z,100531.06
2023-05-19T08:44:37.623Z,100530.31
2023-05-19T08:49:50.592Z,100528.97
2023-05-19T08:55:21.849Z,100529.19
2023-05-19T09:00:23.964Z,100530.31
2023-05-19T09:05:25.746Z,100528.13
2023-05-19T09:10:29.120Z,100520.19
2023-05-19T09:15:31.969Z,100516.31
2023-05-19T09:20:37.289Z,100509.22
2023-05-19T09:25:50.276Z,100508.06
2023-05-19T09:31:01.540Z,100517.50
2023-05-19T09:36:06.150Z,100513.03
2023-05-19T09:41:09.152Z,100509.75
2023-05-19T09:46:14.770Z,100503.47
2023-05-19T09:51:17.584Z,100502.00
2023-05-19T09:56:23.813Z,100491.84
2023-05-19T10:01:26.691Z,100495.50
2023-05-19T10:06:28.702Z,100488.44
2023-05-19T10:11:30.823Z,100491.91
2023-05-19T10:16:33.798Z,100481.31
2023-05-19T10:21:35.495Z,100480.88
2023-05-19T10:26:39.072Z,100475.06
2023-05-19T10:31:41.447Z,100475.03
2023-05-19T10:36:46.468Z,100476.38
2023-05-19T10:42:23.926Z,100474.41
2023-05-19T10:47:26.323Z,100457.59
2023-05-19T10:52:30.854Z,100464.44
2023-05-19T10:57:33.346Z,100469.47
2023-05-19T11:02:42.348Z,100476.06
2023-05-19T11:07:55.338Z,100463.38
2023-05-19T11:12:58.415Z,100464.41
2023-05-19T11:18:01.951Z,100462.44
2023-05-19T11:23:03.631Z,100443.88
2023-05-19T11:28:05.888Z,100455.69
2023-05-19T11:33:08.235Z,100456.91
2023-05-19T11:38:11.241Z,100454.09
2023-05-19T11:43:12.904Z,100444.97
2023-05-19T11:48:16.104Z,100444.66
2023-05-19T11:53:19.847Z,100446.25
2023-05-19T11:58:27.849Z,100452.09
2023-05-19T12:03:29.885Z,100453.69
2023-05-19T12:08:31.810Z,100452.00
2023-05-19T12:13:33.659Z,100461.97
2023-05-19T12:18:39.224Z,100451.69
2023-05-19T12:23:41.839Z,100437.13
2023-05-19T12:28:45.631Z,100431.44
2023-05-19T12:33:52.618Z,100435.84
2023-05-19T12:38:55.612Z,100447.53
2023-05-19T12:43:57.256Z,100436.41
2023-05-19T12:49:01.008Z,100438.47
2023-05-19T12:54:04.676Z,100436.41
2023-05-19T12:59:06.401Z,100425.31
2023-05-19T13:04:08.340Z,100421.03
2023-05-19T13:09:10.879Z,100422.31
2023-05-19T13:14:12.638Z,100422.25
2023-05-19T13:19:25.536Z,100416.34
2023-05-19T13:24:27.895Z,100417.09
2023-05-19T13:29:29.598Z,100418.81
2023-05-19T13:34:31.350Z,100432.38
2023-05-19T13:39:33.438Z,100435.94
2023-05-19T13:44:35.176Z,100426.44
2023-05-19T13:49:36.872Z,100434.03
2023-05-19T13:54:38.543Z,100426.34
2023-05-19T13:59:52.902Z,100422.97
2023-05-19T14:05:02.798Z,100427.97
2023-05-19T14:10:07.041Z,100410.44
2023-05-19T14:15:11.451Z,100422.16
2023-05-19T14:20:13.363Z,100431.00
2023-05-19T14:25:15.086Z,100431.25
2023-05-19T14:30:16.744Z,100421.31
2023-05-19T14:35:18.444Z,100425.97
2023-05-19T14:40:20.368Z,100422.59
2023-05-19T14:45:22.181Z,100428.06
2023-05-19T14:50:23.897Z,100419.69
2023-05-19T14:55:25.679Z,100430.09
2023-05-19T15:00:27.384Z,100436.53
2023-05-19T15:05:29.054Z,100428.53
2023-05-19T15:10:31.084Z,100428.41
2023-05-19T15:15:32.876Z,100430.44
2023-05-19T15:20:34.922Z,100430.72
2023-05-19T15:25:37.279Z,100435.81
2023-05-19T15:30:39.962Z,100425.22
2023-05-19T15:35:41.959Z,100437.03
2023-05-19T15:40:43.664Z,100436.66
2023-05-19T15:45:45.395Z,100445.69
2023-05-19T15:50:47.155Z,100450.94
2023-05-19T15:55:48.842Z,100452.09
2023-05-19T16:00:50.657Z,100450.16
2023-05-19T16:05:53.194Z,100453.66
2023-05-19T16:10:55.297Z,100459.38
2023-05-19T16:15:56.976Z,100463.03
2023-05-19T16:20:58.636Z,100469.75
2023-05-19T16:26:00.457Z,100461.72
2023-05-19T16:31:02.118Z,100463.63
2023-05-19T16:36:03.999Z,100469.03
2023-05-19T16:41:06.883Z,100473.34
2023-05-19T16:46:09.951Z,100480.69
2023-05-19T16:51:11.722Z,100479.03
2023-05-19T16:56:13.380Z,100475.63
2023-05-19T17:01:16.230Z,100471.25
2023-05-19T17:06:17.887Z,100466.28
2023-05-19T17:11:19.537Z,100465.75
2023-05-19T17:16:21.422Z,100475.84
2023-05-19T17:21:23.087Z,100478.91
2023-05-19T17:26:24.749Z,100481.66
2023-05-19T17:31:26.449Z,100463.16
2023-05-19T17:36:28.429Z,100477.59
2023-05-19T17:41:30.251Z,100476.28
2023-05-19T17:46:34.728Z,100483.56
2023-05-19T17:51:36.961Z,100486.53
2023-05-19T17:56:42.186Z,100488.97
2023-05-19T18:01:44.350Z,100475.91
2023-05-19T18:06:46.615Z,100474.69
2023-05-19T18:11:48.338Z,100473.34
2023-05-19T18:16:50.131Z,100475.16
2023-05-19T18:21:51.860Z,100494.81
2023-05-19T18:26:53.506Z,100489.00
2023-05-19T18:31:55.332Z,100492.59
2023-05-19T18:36:57.025Z,100484.97
2023-05-19T18:41:58.937Z,100482.06
2023-05-19T18:47:01.137Z,100483.03
2023-05-19T18:52:02.867Z,100482.97
2023-05-19T18:57:05.103Z,100501.28
2023-05-19T19:02:06.926Z,100495.56
2023-05-19T19:07:08.614Z,100500.66
2023-05-19T19:12:10.829Z,100495.53
2023-05-19T19:17:12.749Z,100494.88
2023-05-19T19:22:14.528Z,100493.44
2023-05-19T19:27:20.931Z,100501.44
2023-05-19T19:32:23.068Z,100499.44
2023-05-19T19:37:24.795Z,100498.53
2023-05-19T19:42:26.440Z,100495.16
2023-05-19T19:47:28.128Z,100497.81
2023-05-19T19:52:29.811Z,100499.69
2023-05-19T19:57:34.140Z,100500.50
2023-05-19T20:02:41.045Z,100494.28
2023-05-19T20:07:47.428Z,100500.25
2023-05-19T20:12:50.643Z,100498.56
2023-05-19T20:17:52.396Z,100507.72
2023-05-19T20:22:54.177Z,100509.06
2023-05-19T20:27:55.822Z,100503.81
2023-05-19T20:32:57.716Z,100503.66
2023-05-19T20:37:59.510Z,100506.50
2023-05-19T20:43:01.245Z,100509.06
2023-05-19T20:48:03.817Z,100508.44
2023-05-19T20:53:07.396Z,100505.00
2023-05-19T20:58:09.136Z,100504.22
2023-05-19T21:03:11.719Z,100499.63
2023-05-19T21:08:13.556Z,100496.75
2023-05-19T21:13:15.219Z,100499.16
2023-05-19T21:18:16.902Z,100498.81
2023-05-19T21:23:18.614Z,100497.75
2023-05-19T21:28:20.332Z,100505.88
2023-05-19T21:33:23.125Z,100506.94
2023-05-19T21:38:25.009Z,100510.09
2023-05-19T21:43:26.828Z,100514.84
2023-05-19T21:48:28.484Z,100508.28
2023-05-19T21:53:31.466Z,100506.25
2023-05-19T21:58:34.470Z,100503.88
2023-05-19T22:03:36.250Z,100503.53
2023-05-19T22:08:37.958Z,100498.16
2023-05-19T22:13:41.239Z,100503.00
2023-05-19T22:18:43.348Z,100504.34
2023-05-19T22:23:45.047Z,100500.13
2023-05-19T22:28:46.685Z,100501.84
2023-05-19T22:33:48.380Z,100501.34
2023-05-19T22:38:50.129Z,100503.72
2023-05-19T22:43:51.786Z,100498.00
2023-05-19T22:48:53.426Z,100496.78
2023-05-19T22:53:55.103Z,100493.28
2023-05-19T22:58:56.771Z,100489.72
2023-05-19T23:03:58.482Z,100484.81
2023-05-19T23:09:04.482Z,100475.16
2023-05-19T23:14:06.197Z,100483.13
2023-05-19T23:19:07.951Z,100485.91
2023-05-19T23:24:09.616Z,100485.03
2023-05-19T23:29:13.078Z,100485.69
2023-05-19T23:34:14.745Z,100496.19
2023-05-19T23:39:16.397Z,100495.34
2023-05-19T23:44:18.602Z,100480.81
2023-05-19T23:49:20.450Z,100492.78
2023-05-19T23:54:22.146Z,100489.91
2023-05-19T23:59:23.792Z,100484.53
